sensor_id;sensor_type;location;lat;lon;timestamp;P1;durP1;ratioP1;P2;durP2;ratioP2
8538;SDS011;4307;53.868;11.680;2024-01-16T00:01:38;4.37;;;2.93;;
8538;SDS011;4307;53.868;11.680;2024-01-16T00:04:08;5.67;;;3.17;;
8538;SDS011;4307;53.868;11.680;2024-01-16T00:06:38;6.97;;;3.63;;
8538;SDS011;4307;53.868;11.680;2024-01-16T00:09:05;6.77;;;3.87;;
8538;SDS011;4307;53.868;11.680;2024-01-16T00:11:31;10.43;;;4.20;;
8538;SDS011;4307;53.868;11.680;2024-01-16T00:13:59;5.60;;;3.20;;
8538;SDS011;4307;53.868;11.680;2024-01-16T00:16:26;4.20;;;3.33;;
8538;SDS011;4307;53.868;11.680;2024-01-16T00:18:53;9.03;;;2.97;;
8538;SDS011;4307;53.868;11.680;2024-01-16T00:21:19;6.60;;;3.20;;
8538;SDS011;4307;53.868;11.680;2024-01-16T00:23:46;2.87;;;2.40;;
8538;SDS011;4307;53.868;11.680;2024-01-16T00:26:19;2.80;;;2.50;;
8538;SDS011;4307;53.868;11.680;2024-01-16T00:28:46;6.53;;;2.30;;
8538;SDS011;4307;53.868;11.680;2024-01-16T00:31:14;3.03;;;2.13;;
8538;SDS011;4307;53.868;11.680;2024-01-16T00:33:41;5.53;;;2.10;;
8538;SDS011;4307;53.868;11.680;2024-01-16T00:36:07;6.33;;;2.33;;
8538;SDS011;4307;53.868;11.680;2024-01-16T00:38:34;7.10;;;2.43;;
8538;SDS011;4307;53.868;11.680;2024-01-16T00:41:01;2.70;;;2.23;;
8538;SDS011;4307;53.868;11.680;2024-01-16T00:43:28;5.50;;;2.13;;
8538;SDS011;4307;53.868;11.680;2024-01-16T00:45:55;2.53;;;2.33;;
8538;SDS011;4307;53.868;11.680;2024-01-16T00:48:23;4.40;;;2.60;;
8538;SDS011;4307;53.868;11.680;2024-01-16T00:50:50;3.73;;;2.60;;
8538;SDS011;4307;53.868;11.680;2024-01-16T00:53:16;8.87;;;2.43;;
8538;SDS011;4307;53.868;11.680;2024-01-16T00:55:43;6.10;;;3.83;;
8538;SDS011;4307;53.868;11.680;2024-01-16T00:58:10;5.07;;;3.63;;
8538;SDS011;4307;53.868;11.680;2024-01-16T01:00:36;5.63;;;4.20;;
8538;SDS011;4307;53.868;11.680;2024-01-16T01:03:03;6.73;;;3.20;;
8538;SDS011;4307;53.868;11.680;2024-01-16T01:05:31;8.20;;;4.90;;
8538;SDS011;4307;53.868;11.680;2024-01-16T01:07:58;7.03;;;4.50;;
8538;SDS011;4307;53.868;11.680;2024-01-16T01:10:25;7.73;;;2.80;;
8538;SDS011;4307;53.868;11.680;2024-01-16T01:12:51;4.67;;;2.13;;
8538;SDS011;4307;53.868;11.680;2024-01-16T01:15:19;5.60;;;2.07;;
8538;SDS011;4307;53.868;11.680;2024-01-16T01:17:47;6.47;;;2.70;;
8538;SDS011;4307;53.868;11.680;2024-01-16T01:20:15;3.97;;;2.30;;
8538;SDS011;4307;53.868;11.680;2024-01-16T01:22:44;2.77;;;2.30;;
8538;SDS011;4307;53.868;11.680;2024-01-16T01:25:11;2.43;;;2.07;;
8538;SDS011;4307;53.868;11.680;2024-01-16T01:27:38;3.67;;;2.17;;
8538;SDS011;4307;53.868;11.680;2024-01-16T01:30:05;4.60;;;2.57;;
8538;SDS011;4307;53.868;11.680;2024-01-16T01:32:33;5.10;;;2.60;;
8538;SDS011;4307;53.868;11.680;2024-01-16T01:35:00;4.90;;;2.57;;
8538;SDS011;4307;53.868;11.680;2024-01-16T01:37:26;2.80;;;1.97;;
8538;SDS011;4307;53.868;11.680;2024-01-16T01:39:54;6.80;;;2.20;;
8538;SDS011;4307;53.868;11.680;2024-01-16T01:42:21;4.87;;;2.50;;
8538;SDS011;4307;53.868;11.680;2024-01-16T01:44:48;8.90;;;2.57;;
8538;SDS011;4307;53.868;11.680;2024-01-16T01:47:15;6.20;;;2.60;;
8538;SDS011;4307;53.868;11.680;2024-01-16T01:49:41;3.27;;;2.10;;
8538;SDS011;4307;53.868;11.680;2024-01-16T01:52:08;5.77;;;2.50;;
8538;SDS011;4307;53.868;11.680;2024-01-16T01:54:36;2.70;;;2.13;;
8538;SDS011;4307;53.868;11.680;2024-01-16T01:57:05;3.17;;;2.33;;
8538;SDS011;4307;53.868;11.680;2024-01-16T01:59:34;4.63;;;2.70;;
8538;SDS011;4307;53.868;11.680;2024-01-16T02:02:00;3.67;;;2.47;;
8538;SDS011;4307;53.868;11.680;2024-01-16T02:04:29;2.30;;;2.10;;
8538;SDS011;4307;53.868;11.680;2024-01-16T02:06:57;2.60;;;2.07;;
8538;SDS011;4307;53.868;11.680;2024-01-16T02:09:24;3.83;;;2.03;;
8538;SDS011;4307;53.868;11.680;2024-01-16T02:11:51;3.57;;;2.20;;
8538;SDS011;4307;53.868;11.680;2024-01-16T02:14:19;5.17;;;2.47;;
8538;SDS011;4307;53.868;11.680;2024-01-16T02:16:45;3.23;;;2.10;;
8538;SDS011;4307;53.868;11.680;2024-01-16T02:19:12;4.57;;;2.30;;
8538;SDS011;4307;53.868;11.680;2024-01-16T02:21:41;3.03;;;2.10;;
8538;SDS011;4307;53.868;11.680;2024-01-16T02:24:11;2.30;;;2.07;;
8538;SDS011;4307;53.868;11.680;2024-01-16T02:26:38;2.57;;;2.37;;
8538;SDS011;4307;53.868;11.680;2024-01-16T02:29:05;2.30;;;2.10;;
8538;SDS011;4307;53.868;11.680;2024-01-16T02:31:32;4.07;;;2.43;;
8538;SDS011;4307;53.868;11.680;2024-01-16T02:33:59;3.77;;;2.80;;
8538;SDS011;4307;53.868;11.680;2024-01-16T02:36:26;4.83;;;2.50;;
8538;SDS011;4307;53.868;11.680;2024-01-16T02:38:54;5.70;;;2.20;;
8538;SDS011;4307;53.868;11.680;2024-01-16T02:41:22;4.67;;;2.33;;
8538;SDS011;4307;53.868;11.680;2024-01-16T02:43:48;4.33;;;2.30;;
8538;SDS011;4307;53.868;11.680;2024-01-16T02:46:15;4.13;;;2.33;;
8538;SDS011;4307;53.868;11.680;2024-01-16T02:48:42;2.93;;;2.23;;
8538;SDS011;4307;53.868;11.680;2024-01-16T02:51:08;6.27;;;2.57;;
8538;SDS011;4307;53.868;11.680;2024-01-16T02:53:35;4.20;;;2.10;;
8538;SDS011;4307;53.868;11.680;2024-01-16T02:56:02;4.23;;;2.40;;
8538;SDS011;4307;53.868;11.680;2024-01-16T02:58:30;6.53;;;2.00;;
8538;SDS011;4307;53.868;11.680;2024-01-16T03:00:57;4.80;;;2.10;;
8538;SDS011;4307;53.868;11.680;2024-01-16T03:03:24;7.63;;;2.37;;
8538;SDS011;4307;53.868;11.680;2024-01-16T03:05:50;5.23;;;2.50;;
8538;SDS011;4307;53.868;11.680;2024-01-16T03:08:17;4.43;;;2.27;;
8538;SDS011;4307;53.868;11.680;2024-01-16T03:10:44;1.70;;;1.60;;
8538;SDS011;4307;53.868;11.680;2024-01-16T03:13:10;2.47;;;1.67;;
8538;SDS011;4307;53.868;11.680;2024-01-16T03:15:38;6.80;;;2.33;;
8538;SDS011;4307;53.868;11.680;2024-01-16T03:18:06;5.97;;;2.23;;
8538;SDS011;4307;53.868;11.680;2024-01-16T03:20:32;5.13;;;2.53;;
8538;SDS011;4307;53.868;11.680;2024-01-16T03:22:59;3.50;;;2.57;;
8538;SDS011;4307;53.868;11.680;2024-01-16T03:25:26;3.50;;;2.17;;
8538;SDS011;4307;53.868;11.680;2024-01-16T03:27:52;4.33;;;2.57;;
8538;SDS011;4307;53.868;11.680;2024-01-16T03:30:19;3.33;;;2.57;;
8538;SDS011;4307;53.868;11.680;2024-01-16T03:32:48;4.80;;;2.53;;
8538;SDS011;4307;53.868;11.680;2024-01-16T03:35:15;5.07;;;2.50;;
8538;SDS011;4307;53.868;11.680;2024-01-16T03:37:41;8.33;;;2.97;;
8538;SDS011;4307;53.868;11.680;2024-01-16T03:40:08;4.47;;;3.40;;
8538;SDS011;4307;53.868;11.680;2024-01-16T03:42:37;6.80;;;3.07;;
8538;SDS011;4307;53.868;11.680;2024-01-16T03:45:05;6.63;;;3.83;;
8538;SDS011;4307;53.868;11.680;2024-01-16T03:47:32;5.20;;;4.10;;
8538;SDS011;4307;53.868;11.680;2024-01-16T03:50:00;4.93;;;3.33;;
8538;SDS011;4307;53.868;11.680;2024-01-16T03:52:27;7.07;;;3.73;;
8538;SDS011;4307;53.868;11.680;2024-01-16T03:54:54;5.77;;;4.03;;
8538;SDS011;4307;53.868;11.680;2024-01-16T03:57:21;8.60;;;3.70;;
8538;SDS011;4307;53.868;11.680;2024-01-16T03:59:48;8.87;;;4.27;;
8538;SDS011;4307;53.868;11.680;2024-01-16T04:02:14;10.13;;;4.20;;
8538;SDS011;4307;53.868;11.680;2024-01-16T04:04:41;7.73;;;4.17;;
8538;SDS011;4307;53.868;11.680;2024-01-16T04:07:10;7.07;;;4.23;;
8538;SDS011;4307;53.868;11.680;2024-01-16T04:09:36;8.50;;;4.87;;
8538;SDS011;4307;53.868;11.680;2024-01-16T04:12:03;9.43;;;5.50;;
8538;SDS011;4307;53.868;11.680;2024-01-16T04:14:33;8.63;;;4.70;;
8538;SDS011;4307;53.868;11.680;2024-01-16T04:16:59;8.50;;;5.13;;
8538;SDS011;4307;53.868;11.680;2024-01-16T04:19:26;7.70;;;4.33;;
8538;SDS011;4307;53.868;11.680;2024-01-16T04:21:53;7.80;;;4.83;;
8538;SDS011;4307;53.868;11.680;2024-01-16T04:24:21;8.30;;;4.40;;
8538;SDS011;4307;53.868;11.680;2024-01-16T04:26:48;6.93;;;4.17;;
8538;SDS011;4307;53.868;11.680;2024-01-16T04:29:15;6.73;;;4.70;;
8538;SDS011;4307;53.868;11.680;2024-01-16T04:31:42;7.30;;;4.80;;
8538;SDS011;4307;53.868;11.680;2024-01-16T04:34:08;8.80;;;4.13;;
8538;SDS011;4307;53.868;11.680;2024-01-16T04:36:35;7.50;;;4.43;;
8538;SDS011;4307;53.868;11.680;2024-01-16T04:39:02;6.93;;;4.17;;
8538;SDS011;4307;53.868;11.680;2024-01-16T04:41:30;7.00;;;4.13;;
8538;SDS011;4307;53.868;11.680;2024-01-16T04:43:57;7.60;;;3.73;;
8538;SDS011;4307;53.868;11.680;2024-01-16T04:46:24;4.40;;;3.30;;
8538;SDS011;4307;53.868;11.680;2024-01-16T04:48:50;6.53;;;3.73;;
8538;SDS011;4307;53.868;11.680;2024-01-16T04:51:17;8.13;;;4.17;;
8538;SDS011;4307;53.868;11.680;2024-01-16T04:53:43;8.43;;;4.53;;
8538;SDS011;4307;53.868;11.680;2024-01-16T04:56:10;6.50;;;3.77;;
8538;SDS011;4307;53.868;11.680;2024-01-16T04:58:38;6.00;;;4.23;;
8538;SDS011;4307;53.868;11.680;2024-01-16T05:01:05;3.87;;;3.33;;
8538;SDS011;4307;53.868;11.680;2024-01-16T05:03:31;7.20;;;3.70;;
8538;SDS011;4307;53.868;11.680;2024-01-16T05:05:58;5.03;;;3.70;;
8538;SDS011;4307;53.868;11.680;2024-01-16T05:08:24;7.23;;;3.73;;
8538;SDS011;4307;53.868;11.680;2024-01-16T05:10:51;7.53;;;4.33;;
8538;SDS011;4307;53.868;11.680;2024-01-16T05:13:18;3.30;;;2.67;;
8538;SDS011;4307;53.868;11.680;2024-01-16T05:15:46;3.97;;;3.10;;
8538;SDS011;4307;53.868;11.680;2024-01-16T05:18:12;4.97;;;3.03;;
8538;SDS011;4307;53.868;11.680;2024-01-16T05:20:39;6.27;;;3.10;;
8538;SDS011;4307;53.868;11.680;2024-01-16T05:23:06;5.30;;;3.70;;
8538;SDS011;4307;53.868;11.680;2024-01-16T05:25:32;5.60;;;3.40;;
8538;SDS011;4307;53.868;11.680;2024-01-16T05:27:59;3.57;;;2.73;;
8538;SDS011;4307;53.868;11.680;2024-01-16T05:30:26;7.00;;;3.50;;
8538;SDS011;4307;53.868;11.680;2024-01-16T05:32:54;4.93;;;3.50;;
8538;SDS011;4307;53.868;11.680;2024-01-16T05:35:25;8.43;;;3.87;;
8538;SDS011;4307;53.868;11.680;2024-01-16T05:37:52;4.07;;;3.07;;
8538;SDS011;4307;53.868;11.680;2024-01-16T05:40:19;6.90;;;3.30;;
8538;SDS011;4307;53.868;11.680;2024-01-16T05:42:46;3.87;;;2.87;;
8538;SDS011;4307;53.868;11.680;2024-01-16T05:45:13;4.80;;;3.43;;
8538;SDS011;4307;53.868;11.680;2024-01-16T05:47:40;5.13;;;3.57;;
8538;SDS011;4307;53.868;11.680;2024-01-16T05:50:08;6.73;;;3.77;;
8538;SDS011;4307;53.868;11.680;2024-01-16T05:52:35;7.77;;;3.13;;
8538;SDS011;4307;53.868;11.680;2024-01-16T05:55:02;9.60;;;3.63;;
8538;SDS011;4307;53.868;11.680;2024-01-16T05:57:30;6.60;;;3.23;;
8538;SDS011;4307;53.868;11.680;2024-01-16T05:59:58;5.77;;;3.50;;
8538;SDS011;4307;53.868;11.680;2024-01-16T06:02:27;4.47;;;3.13;;
8538;SDS011;4307;53.868;11.680;2024-01-16T06:04:54;5.50;;;3.50;;
8538;SDS011;4307;53.868;11.680;2024-01-16T06:07:24;9.13;;;3.43;;
8538;SDS011;4307;53.868;11.680;2024-01-16T06:09:51;3.53;;;2.93;;
8538;SDS011;4307;53.868;11.680;2024-01-16T06:12:17;4.37;;;3.10;;
8538;SDS011;4307;53.868;11.680;2024-01-16T06:14:44;6.23;;;3.67;;
8538;SDS011;4307;53.868;11.680;2024-01-16T06:17:11;6.40;;;4.10;;
8538;SDS011;4307;53.868;11.680;2024-01-16T06:19:38;5.97;;;3.67;;
8538;SDS011;4307;53.868;11.680;2024-01-16T06:22:04;6.67;;;3.23;;
8538;SDS011;4307;53.868;11.680;2024-01-16T06:24:32;5.13;;;3.80;;
8538;SDS011;4307;53.868;11.680;2024-01-16T06:27:02;7.77;;;3.77;;
8538;SDS011;4307;53.868;11.680;2024-01-16T06:29:30;5.87;;;3.97;;
8538;SDS011;4307;53.868;11.680;2024-01-16T06:31:56;7.83;;;3.50;;
8538;SDS011;4307;53.868;11.680;2024-01-16T06:34:23;6.50;;;4.17;;
8538;SDS011;4307;53.868;11.680;2024-01-16T06:36:50;8.17;;;3.60;;
8538;SDS011;4307;53.868;11.680;2024-01-16T06:39:16;6.20;;;3.83;;
8538;SDS011;4307;53.868;11.680;2024-01-16T06:41:44;6.80;;;3.80;;
8538;SDS011;4307;53.868;11.680;2024-01-16T06:44:11;7.60;;;4.20;;
8538;SDS011;4307;53.868;11.680;2024-01-16T06:46:37;6.13;;;4.27;;
8538;SDS011;4307;53.868;11.680;2024-01-16T06:49:04;6.50;;;4.30;;
8538;SDS011;4307;53.868;11.680;2024-01-16T06:51:31;5.47;;;4.17;;
8538;SDS011;4307;53.868;11.680;2024-01-16T06:53:58;5.27;;;4.07;;
8538;SDS011;4307;53.868;11.680;2024-01-16T06:56:24;6.33;;;4.40;;
8538;SDS011;4307;53.868;11.680;2024-01-16T06:58:53;9.90;;;4.83;;
8538;SDS011;4307;53.868;11.680;2024-01-16T07:01:19;5.37;;;4.30;;
8538;SDS011;4307;53.868;11.680;2024-01-16T07:03:46;8.50;;;4.73;;
8538;SDS011;4307;53.868;11.680;2024-01-16T07:06:13;7.47;;;5.00;;
8538;SDS011;4307;53.868;11.680;2024-01-16T07:08:39;9.80;;;4.47;;
8538;SDS011;4307;53.868;11.680;2024-01-16T07:11:06;9.70;;;4.87;;
8538;SDS011;4307;53.868;11.680;2024-01-16T07:13:37;9.67;;;5.33;;
8538;SDS011;4307;53.868;11.680;2024-01-16T07:16:05;10.70;;;5.27;;
8538;SDS011;4307;53.868;11.680;2024-01-16T07:18:32;8.87;;;5.43;;
8538;SDS011;4307;53.868;11.680;2024-01-16T07:20:59;7.63;;;5.13;;
8538;SDS011;4307;53.868;11.680;2024-01-16T07:23:27;10.00;;;6.10;;
8538;SDS011;4307;53.868;11.680;2024-01-16T07:25:55;10.00;;;5.77;;
8538;SDS011;4307;53.868;11.680;2024-01-16T07:28:21;8.17;;;5.80;;
8538;SDS011;4307;53.868;11.680;2024-01-16T07:30:47;8.80;;;6.27;;
8538;SDS011;4307;53.868;11.680;2024-01-16T07:33:15;10.80;;;6.23;;
8538;SDS011;4307;53.868;11.680;2024-01-16T07:35:42;11.33;;;6.20;;
8538;SDS011;4307;53.868;11.680;2024-01-16T07:38:12;11.60;;;6.23;;
8538;SDS011;4307;53.868;11.680;2024-01-16T07:40:39;13.33;;;6.70;;
8538;SDS011;4307;53.868;11.680;2024-01-16T07:43:06;9.43;;;6.77;;
8538;SDS011;4307;53.868;11.680;2024-01-16T07:45:32;11.27;;;6.67;;
8538;SDS011;4307;53.868;11.680;2024-01-16T07:47:59;14.47;;;6.97;;
8538;SDS011;4307;53.868;11.680;2024-01-16T07:50:27;10.17;;;6.80;;
8538;SDS011;4307;53.868;11.680;2024-01-16T07:52:54;12.00;;;6.40;;
8538;SDS011;4307;53.868;11.680;2024-01-16T07:55:20;12.47;;;6.80;;
8538;SDS011;4307;53.868;11.680;2024-01-16T07:57:47;11.63;;;6.10;;
8538;SDS011;4307;53.868;11.680;2024-01-16T08:00:14;11.53;;;6.70;;
8538;SDS011;4307;53.868;11.680;2024-01-16T08:02:41;12.73;;;6.63;;
8538;SDS011;4307;53.868;11.680;2024-01-16T08:05:07;12.33;;;6.90;;
8538;SDS011;4307;53.868;11.680;2024-01-16T08:07:36;10.10;;;6.20;;
8538;SDS011;4307;53.868;11.680;2024-01-16T08:10:02;9.03;;;5.70;;
8538;SDS011;4307;53.868;11.680;2024-01-16T08:12:29;14.17;;;6.43;;
8538;SDS011;4307;53.868;11.680;2024-01-16T08:14:56;12.27;;;6.60;;
8538;SDS011;4307;53.868;11.680;2024-01-16T08:17:22;9.20;;;6.03;;
8538;SDS011;4307;53.868;11.680;2024-01-16T08:19:49;13.93;;;6.17;;
8538;SDS011;4307;53.868;11.680;2024-01-16T08:22:16;10.70;;;7.10;;
8538;SDS011;4307;53.868;11.680;2024-01-16T08:24:44;12.20;;;6.73;;
8538;SDS011;4307;53.868;11.680;2024-01-16T08:27:10;12.97;;;6.90;;
8538;SDS011;4307;53.868;11.680;2024-01-16T08:29:37;13.03;;;6.17;;
8538;SDS011;4307;53.868;11.680;2024-01-16T08:32:04;11.67;;;7.00;;
8538;SDS011;4307;53.868;11.680;2024-01-16T08:34:31;14.10;;;6.53;;
8538;SDS011;4307;53.868;11.680;2024-01-16T08:36:57;13.67;;;6.70;;
8538;SDS011;4307;53.868;11.680;2024-01-16T08:39:24;12.23;;;6.63;;
8538;SDS011;4307;53.868;11.680;2024-01-16T08:41:54;9.47;;;6.47;;
8538;SDS011;4307;53.868;11.680;2024-01-16T08:44:22;13.20;;;7.33;;
8538;SDS011;4307;53.868;11.680;2024-01-16T08:46:49;18.40;;;7.53;;
8538;SDS011;4307;53.868;11.680;2024-01-16T08:49:15;12.53;;;7.37;;
8538;SDS011;4307;53.868;11.680;2024-01-16T08:51:42;12.93;;;7.60;;
8538;SDS011;4307;53.868;11.680;2024-01-16T08:54:09;11.77;;;7.20;;
8538;SDS011;4307;53.868;11.680;2024-01-16T08:56:35;13.60;;;7.87;;
8538;SDS011;4307;53.868;11.680;2024-01-16T08:59:03;17.80;;;7.87;;
8538;SDS011;4307;53.868;11.680;2024-01-16T09:01:30;14.23;;;8.20;;
8538;SDS011;4307;53.868;11.680;2024-01-16T09:03:57;14.63;;;7.57;;
8538;SDS011;4307;53.868;11.680;2024-01-16T09:06:24;10.90;;;6.73;;
8538;SDS011;4307;53.868;11.680;2024-01-16T09:08:50;15.50;;;8.37;;
8538;SDS011;4307;53.868;11.680;2024-01-16T09:11:17;14.13;;;8.00;;
8538;SDS011;4307;53.868;11.680;2024-01-16T09:13:43;15.30;;;8.73;;
8538;SDS011;4307;53.868;11.680;2024-01-16T09:16:11;12.37;;;7.93;;
8538;SDS011;4307;53.868;11.680;2024-01-16T09:18:38;13.83;;;8.33;;
8538;SDS011;4307;53.868;11.680;2024-01-16T09:21:05;16.40;;;6.70;;
8538;SDS011;4307;53.868;11.680;2024-01-16T09:23:32;15.97;;;8.73;;
8538;SDS011;4307;53.868;11.680;2024-01-16T09:25:58;21.90;;;8.67;;
8538;SDS011;4307;53.868;11.680;2024-01-16T09:28:25;17.77;;;9.40;;
8538;SDS011;4307;53.868;11.680;2024-01-16T09:30:53;17.03;;;8.57;;
8538;SDS011;4307;53.868;11.680;2024-01-16T09:33:22;17.90;;;8.63;;
8538;SDS011;4307;53.868;11.680;2024-01-16T09:35:50;12.50;;;7.63;;
8538;SDS011;4307;53.868;11.680;2024-01-16T09:38:17;15.23;;;8.87;;
8538;SDS011;4307;53.868;11.680;2024-01-16T09:40:44;13.53;;;7.87;;
8538;SDS011;4307;53.868;11.680;2024-01-16T09:43:11;13.90;;;8.70;;
8538;SDS011;4307;53.868;11.680;2024-01-16T09:45:38;16.07;;;8.23;;
8538;SDS011;4307;53.868;11.680;2024-01-16T09:48:05;15.73;;;7.73;;
8538;SDS011;4307;53.868;11.680;2024-01-16T09:50:34;15.30;;;7.73;;
8538;SDS011;4307;53.868;11.680;2024-01-16T09:53:02;14.73;;;8.17;;
8538;SDS011;4307;53.868;11.680;2024-01-16T09:55:29;15.53;;;7.60;;
8538;SDS011;4307;53.868;11.680;2024-01-16T09:57:55;11.40;;;6.93;;
8538;SDS011;4307;53.868;11.680;2024-01-16T10:00:23;15.90;;;8.07;;
8538;SDS011;4307;53.868;11.680;2024-01-16T10:02:50;18.40;;;8.43;;
8538;SDS011;4307;53.868;11.680;2024-01-16T10:05:23;12.57;;;6.43;;
8538;SDS011;4307;53.868;11.680;2024-01-16T10:07:51;16.17;;;8.20;;
8538;SDS011;4307;53.868;11.680;2024-01-16T10:10:18;15.57;;;7.83;;
8538;SDS011;4307;53.868;11.680;2024-01-16T10:12:46;15.10;;;7.50;;
8538;SDS011;4307;53.868;11.680;2024-01-16T10:15:13;14.30;;;7.70;;
8538;SDS011;4307;53.868;11.680;2024-01-16T10:17:42;12.00;;;6.73;;
8538;SDS011;4307;53.868;11.680;2024-01-16T10:20:09;13.27;;;7.77;;
8538;SDS011;4307;53.868;11.680;2024-01-16T10:22:38;11.43;;;7.37;;
8538;SDS011;4307;53.868;11.680;2024-01-16T10:25:07;13.63;;;7.20;;
8538;SDS011;4307;53.868;11.680;2024-01-16T10:27:37;12.43;;;7.53;;
8538;SDS011;4307;53.868;11.680;2024-01-16T10:30:05;12.60;;;6.30;;
8538;SDS011;4307;53.868;11.680;2024-01-16T10:32:33;13.03;;;7.07;;
8538;SDS011;4307;53.868;11.680;2024-01-16T10:35:01;12.97;;;6.70;;
8538;SDS011;4307;53.868;11.680;2024-01-16T10:37:40;9.50;;;5.97;;
8538;SDS011;4307;53.868;11.680;2024-01-16T10:40:09;12.90;;;6.70;;
8538;SDS011;4307;53.868;11.680;2024-01-16T10:42:40;12.93;;;6.10;;
8538;SDS011;4307;53.868;11.680;2024-01-16T10:45:06;16.97;;;6.77;;
8538;SDS011;4307;53.868;11.680;2024-01-16T10:47:33;12.43;;;5.50;;
8538;SDS011;4307;53.868;11.680;2024-01-16T10:50:02;11.07;;;6.70;;
8538;SDS011;4307;53.868;11.680;2024-01-16T10:52:30;15.40;;;6.77;;
8538;SDS011;4307;53.868;11.680;2024-01-16T10:54:59;14.93;;;6.33;;
8538;SDS011;4307;53.868;11.680;2024-01-16T10:57:31;10.30;;;6.17;;
8538;SDS011;4307;53.868;11.680;2024-01-16T11:00:00;13.90;;;7.03;;
8538;SDS011;4307;53.868;11.680;2024-01-16T11:02:34;12.80;;;6.77;;
8538;SDS011;4307;53.868;11.680;2024-01-16T11:05:07;11.40;;;6.97;;
8538;SDS011;4307;53.868;11.680;2024-01-16T11:07:36;9.30;;;6.20;;
8538;SDS011;4307;53.868;11.680;2024-01-16T11:10:04;10.00;;;5.80;;
8538;SDS011;4307;53.868;11.680;2024-01-16T11:12:34;10.30;;;6.40;;
8538;SDS011;4307;53.868;11.680;2024-01-16T11:15:04;12.10;;;7.00;;
8538;SDS011;4307;53.868;11.680;2024-01-16T11:17:33;12.10;;;6.63;;
8538;SDS011;4307;53.868;11.680;2024-01-16T11:20:00;12.50;;;6.67;;
8538;SDS011;4307;53.868;11.680;2024-01-16T11:22:31;9.87;;;6.37;;
8538;SDS011;4307;53.868;11.680;2024-01-16T11:25:08;10.53;;;6.07;;
8538;SDS011;4307;53.868;11.680;2024-01-16T11:27:36;9.73;;;5.97;;
8538;SDS011;4307;53.868;11.680;2024-01-16T11:30:04;14.07;;;7.20;;
8538;SDS011;4307;53.868;11.680;2024-01-16T11:32:32;11.67;;;6.30;;
8538;SDS011;4307;53.868;11.680;2024-01-16T11:35:00;12.30;;;6.90;;
8538;SDS011;4307;53.868;11.680;2024-01-16T11:37:27;11.93;;;7.00;;
8538;SDS011;4307;53.868;11.680;2024-01-16T11:42:48;13.03;;;7.20;;
8538;SDS011;4307;53.868;11.680;2024-01-16T11:48:18;16.20;;;7.20;;
8538;SDS011;4307;53.868;11.680;2024-01-16T11:50:46;13.40;;;7.80;;
8538;SDS011;4307;53.868;11.680;2024-01-16T11:53:34;12.80;;;6.97;;
8538;SDS011;4307;53.868;11.680;2024-01-16T11:59:05;14.10;;;6.97;;
8538;SDS011;4307;53.868;11.680;2024-01-16T12:01:44;15.67;;;8.17;;
8538;SDS011;4307;53.868;11.680;2024-01-16T12:04:11;16.43;;;7.07;;
8538;SDS011;4307;53.868;11.680;2024-01-16T12:06:43;16.07;;;8.60;;
8538;SDS011;4307;53.868;11.680;2024-01-16T12:09:12;13.90;;;7.53;;
8538;SDS011;4307;53.868;11.680;2024-01-16T12:11:39;15.13;;;7.77;;
8538;SDS011;4307;53.868;11.680;2024-01-16T12:14:10;14.57;;;6.83;;
8538;SDS011;4307;53.868;11.680;2024-01-16T12:16:36;14.00;;;7.77;;
8538;SDS011;4307;53.868;11.680;2024-01-16T12:19:04;11.53;;;6.80;;
8538;SDS011;4307;53.868;11.680;2024-01-16T12:23:59;12.83;;;7.43;;
8538;SDS011;4307;53.868;11.680;2024-01-16T12:26:26;16.50;;;7.37;;
8538;SDS011;4307;53.868;11.680;2024-01-16T12:28:53;11.87;;;7.23;;
8538;SDS011;4307;53.868;11.680;2024-01-16T12:31:21;13.60;;;7.53;;
8538;SDS011;4307;53.868;11.680;2024-01-16T12:33:47;13.13;;;7.63;;
8538;SDS011;4307;53.868;11.680;2024-01-16T12:36:14;11.87;;;7.53;;
8538;SDS011;4307;53.868;11.680;2024-01-16T12:38:41;14.10;;;7.10;;
8538;SDS011;4307;53.868;11.680;2024-01-16T12:41:09;10.70;;;6.40;;
8538;SDS011;4307;53.868;11.680;2024-01-16T12:43:37;11.23;;;6.83;;
8538;SDS011;4307;53.868;11.680;2024-01-16T12:46:04;10.57;;;6.27;;
8538;SDS011;4307;53.868;11.680;2024-01-16T12:48:34;9.00;;;6.17;;
8538;SDS011;4307;53.868;11.680;2024-01-16T12:51:02;14.47;;;6.63;;
8538;SDS011;4307;53.868;11.680;2024-01-16T12:53:32;9.37;;;6.20;;
8538;SDS011;4307;53.868;11.680;2024-01-16T12:56:02;8.87;;;6.23;;
8538;SDS011;4307;53.868;11.680;2024-01-16T12:58:32;13.93;;;5.60;;
8538;SDS011;4307;53.868;11.680;2024-01-16T13:01:20;9.20;;;5.73;;
8538;SDS011;4307;53.868;11.680;2024-01-16T13:03:48;8.30;;;5.43;;
8538;SDS011;4307;53.868;11.680;2024-01-16T13:06:16;9.20;;;5.63;;
8538;SDS011;4307;53.868;11.680;2024-01-16T13:08:44;8.70;;;4.93;;
8538;SDS011;4307;53.868;11.680;2024-01-16T13:11:11;9.30;;;4.83;;
8538;SDS011;4307;53.868;11.680;2024-01-16T13:13:40;8.87;;;4.90;;
8538;SDS011;4307;53.868;11.680;2024-01-16T13:16:07;7.27;;;4.73;;
8538;SDS011;4307;53.868;11.680;2024-01-16T13:18:34;9.20;;;4.50;;
8538;SDS011;4307;53.868;11.680;2024-01-16T13:21:02;7.17;;;4.27;;
8538;SDS011;4307;53.868;11.680;2024-01-16T13:23:29;6.07;;;3.90;;
8538;SDS011;4307;53.868;11.680;2024-01-16T13:25:56;7.50;;;4.03;;
8538;SDS011;4307;53.868;11.680;2024-01-16T13:28:24;4.00;;;3.60;;
8538;SDS011;4307;53.868;11.680;2024-01-16T13:30:51;3.90;;;3.40;;
8538;SDS011;4307;53.868;11.680;2024-01-16T13:33:18;7.13;;;3.80;;
8538;SDS011;4307;53.868;11.680;2024-01-16T13:35:45;9.07;;;3.70;;
8538;SDS011;4307;53.868;11.680;2024-01-16T13:38:14;5.00;;;3.60;;
8538;SDS011;4307;53.868;11.680;2024-01-16T13:40:42;7.03;;;3.90;;
8538;SDS011;4307;53.868;11.680;2024-01-16T13:43:08;5.73;;;3.67;;
8538;SDS011;4307;53.868;11.680;2024-01-16T13:45:36;5.70;;;3.50;;
8538;SDS011;4307;53.868;11.680;2024-01-16T13:48:03;6.27;;;3.47;;
8538;SDS011;4307;53.868;11.680;2024-01-16T13:50:32;7.63;;;3.90;;
8538;SDS011;4307;53.868;11.680;2024-01-16T13:52:59;7.37;;;4.03;;
8538;SDS011;4307;53.868;11.680;2024-01-16T13:55:26;7.53;;;4.10;;
8538;SDS011;4307;53.868;11.680;2024-01-16T13:57:53;6.53;;;3.60;;
8538;SDS011;4307;53.868;11.680;2024-01-16T14:00:19;10.10;;;3.43;;
8538;SDS011;4307;53.868;11.680;2024-01-16T14:02:46;5.20;;;3.43;;
8538;SDS011;4307;53.868;11.680;2024-01-16T14:05:14;8.27;;;4.07;;
8538;SDS011;4307;53.868;11.680;2024-01-16T14:07:42;5.20;;;3.40;;
8538;SDS011;4307;53.868;11.680;2024-01-16T14:10:11;7.27;;;3.57;;
8538;SDS011;4307;53.868;11.680;2024-01-16T14:12:40;9.63;;;3.87;;
8538;SDS011;4307;53.868;11.680;2024-01-16T14:15:08;8.13;;;4.20;;
8538;SDS011;4307;53.868;11.680;2024-01-16T14:17:41;7.33;;;3.67;;
8538;SDS011;4307;53.868;11.680;2024-01-16T14:20:08;5.23;;;3.40;;
8538;SDS011;4307;53.868;11.680;2024-01-16T14:22:36;6.80;;;3.70;;
8538;SDS011;4307;53.868;11.680;2024-01-16T14:25:03;10.10;;;3.60;;
8538;SDS011;4307;53.868;11.680;2024-01-16T14:27:35;3.37;;;3.07;;
8538;SDS011;4307;53.868;11.680;2024-01-16T14:30:06;8.83;;;3.13;;
8538;SDS011;4307;53.868;11.680;2024-01-16T14:32:35;7.53;;;3.47;;
8538;SDS011;4307;53.868;11.680;2024-01-16T14:35:03;7.83;;;3.40;;
8538;SDS011;4307;53.868;11.680;2024-01-16T14:37:30;9.10;;;3.60;;
8538;SDS011;4307;53.868;11.680;2024-01-16T14:39:57;4.33;;;3.60;;
8538;SDS011;4307;53.868;11.680;2024-01-16T14:42:26;5.47;;;3.43;;
8538;SDS011;4307;53.868;11.680;2024-01-16T14:44:52;7.23;;;3.77;;
8538;SDS011;4307;53.868;11.680;2024-01-16T14:47:20;4.70;;;3.87;;
8538;SDS011;4307;53.868;11.680;2024-01-16T14:49:49;4.37;;;3.23;;
8538;SDS011;4307;53.868;11.680;2024-01-16T14:52:15;7.83;;;3.57;;
8538;SDS011;4307;53.868;11.680;2024-01-16T14:54:43;6.57;;;3.77;;
8538;SDS011;4307;53.868;11.680;2024-01-16T14:57:09;13.93;;;3.67;;
8538;SDS011;4307;53.868;11.680;2024-01-16T14:59:36;6.20;;;3.63;;
8538;SDS011;4307;53.868;11.680;2024-01-16T15:02:03;5.27;;;3.90;;
8538;SDS011;4307;53.868;11.680;2024-01-16T15:04:38;6.87;;;4.00;;
8538;SDS011;4307;53.868;11.680;2024-01-16T15:07:05;6.63;;;3.53;;
8538;SDS011;4307;53.868;11.680;2024-01-16T15:09:32;3.63;;;3.20;;
8538;SDS011;4307;53.868;11.680;2024-01-16T15:11:59;7.03;;;3.97;;